sensor_id;sensor_type;location;lat;lon;timestamp;temperature;humidity
24412;DHT22;12544;46.760;15.942;2023-11-19T00:00:20;3.30;99.90
24412;DHT22;12544;46.760;15.942;2023-11-19T00:02:45;3.20;99.90
24412;DHT22;12544;46.760;15.942;2023-11-19T00:05:13;3.20;99.90
24412;DHT22;12544;46.760;15.942;2023-11-19T00:07:39;3.20;99.90
24412;DHT22;12544;46.760;15.942;2023-11-19T00:10:12;3.30;99.90
24412;DHT22;12544;46.760;15.942;2023-11-19T00:12:42;3.30;99.90
24412;DHT22;12544;46.760;15.942;2023-11-19T00:15:09;3.30;99.90
24412;DHT22;12544;46.760;15.942;2023-11-19T00:17:37;3.40;99.90
24412;DHT22;12544;46.760;15.942;2023-11-19T00:20:08;3.40;99.90
24412;DHT22;12544;46.760;15.942;2023-11-19T00:22:34;3.50;99.90
24412;DHT22;12544;46.760;15.942;2023-11-19T00:24:59;3.50;99.90
24412;DHT22;12544;46.760;15.942;2023-11-19T00:27:25;3.50;99.90
24412;DHT22;12544;46.760;15.942;2023-11-19T00:29:51;3.60;99.90
24412;DHT22;12544;46.760;15.942;2023-11-19T00:32:17;3.60;99.90
24412;DHT22;12544;46.760;15.942;2023-11-19T00:34:45;3.60;99.90
24412;DHT22;12544;46.760;15.942;2023-11-19T00:37:13;3.60;99.90
24412;DHT22;12544;46.760;15.942;2023-11-19T00:39:39;3.60;99.90
24412;DHT22;12544;46.760;15.942;2023-11-19T00:42:05;3.60;99.90
24412;DHT22;12544;46.760;15.942;2023-11-19T00:44:31;3.70;99.90
24412;DHT22;12544;46.760;15.942;2023-11-19T00:46:56;3.70;99.90
24412;DHT22;12544;46.760;15.942;2023-11-19T00:49:22;3.80;99.90
24412;DHT22;12544;46.760;15.942;2023-11-19T00:51:48;3.80;99.90
24412;DHT22;12544;46.760;15.942;2023-11-19T00:54:14;3.80;99.90
24412;DHT22;12544;46.760;15.942;2023-11-19T00:56:40;3.90;99.90
24412;DHT22;12544;46.760;15.942;2023-11-19T00:59:05;3.90;99.90
24412;DHT22;12544;46.760;15.942;2023-11-19T01:01:35;4.00;99.90
24412;DHT22;12544;46.760;15.942;2023-11-19T01:04:01;4.10;99.90
24412;DHT22;12544;46.760;15.942;2023-11-19T01:06:27;4.10;99.90
24412;DHT22;12544;46.760;15.942;2023-11-19T01:08:54;4.20;99.90
24412;DHT22;12544;46.760;15.942;2023-11-19T01:11:21;4.20;99.90
24412;DHT22;12544;46.760;15.942;2023-11-19T01:13:47;4.30;99.90
24412;DHT22;12544;46.760;15.942;2023-11-19T01:16:13;4.20;99.90
24412;DHT22;12544;46.760;15.942;2023-11-19T01:18:38;4.30;99.90
24412;DHT22;12544;46.760;15.942;2023-11-19T01:21:05;4.20;99.90
24412;DHT22;12544;46.760;15.942;2023-11-19T01:23:30;4.20;99.90
24412;DHT22;12544;46.760;15.942;2023-11-19T01:25:56;4.20;99.90
24412;DHT22;12544;46.760;15.942;2023-11-19T01:28:22;4.10;99.90
24412;DHT22;12544;46.760;15.942;2023-11-19T01:30:50;4.10;99.90
24412;DHT22;12544;46.760;15.942;2023-11-19T01:33:16;4.10;99.90
24412;DHT22;12544;46.760;15.942;2023-11-19T01:35:42;4.10;99.90
24412;DHT22;12544;46.760;15.942;2023-11-19T01:38:07;4.10;99.90
24412;DHT22;12544;46.760;15.942;2023-11-19T01:40:36;4.00;99.90
24412;DHT22;12544;46.760;15.942;2023-11-19T01:43:03;4.10;99.90
24412;DHT22;12544;46.760;15.942;2023-11-19T01:45:30;4.10;99.90
24412;DHT22;12544;46.760;15.942;2023-11-19T01:47:57;4.10;99.90
24412;DHT22;12544;46.760;15.942;2023-11-19T01:50:32;4.10;99.90
24412;DHT22;12544;46.760;15.942;2023-11-19T01:52:58;4.10;99.90
24412;DHT22;12544;46.760;15.942;2023-11-19T01:55:25;4.10;99.90
24412;DHT22;12544;46.760;15.942;2023-11-19T01:57:54;4.10;99.90
24412;DHT22;12544;46.760;15.942;2023-11-19T02:00:24;4.00;99.90
24412;DHT22;12544;46.760;15.942;2023-11-19T02:02:51;4.00;99.90
24412;DHT22;12544;46.760;15.942;2023-11-19T02:05:17;4.00;99.90
24412;DHT22;12544;46.760;15.942;2023-11-19T02:07:43;4.00;99.90
24412;DHT22;12544;46.760;15.942;2023-11-19T02:10:09;4.00;99.90
24412;DHT22;12544;46.760;15.942;2023-11-19T02:12:42;4.00;99.90
24412;DHT22;12544;46.760;15.942;2023-11-19T02:15:09;4.00;99.90
24412;DHT22;12544;46.760;15.942;2023-11-19T02:17:38;4.00;99.90
24412;DHT22;12544;46.760;15.942;2023-11-19T02:20:04;3.90;99.90
24412;DHT22;12544;46.760;15.942;2023-11-19T02:22:35;4.00;99.90
24412;DHT22;12544;46.760;15.942;2023-11-19T02:25:04;3.90;99.90
24412;DHT22;12544;46.760;15.942;2023-11-19T02:27:53;3.90;99.90
24412;DHT22;12544;46.760;15.942;2023-11-19T02:30:23;3.90;99.90
24412;DHT22;12544;46.760;15.942;2023-11-19T02:33:01;3.90;99.90
24412;DHT22;12544;46.760;15.942;2023-11-19T02:35:31;3.90;99.90
24412;DHT22;12544;46.760;15.942;2023-11-19T02:37:57;3.90;99.90
24412;DHT22;12544;46.760;15.942;2023-11-19T02:40:24;3.90;99.90
24412;DHT22;12544;46.760;15.942;2023-11-19T02:42:51;4.00;99.90
24412;DHT22;12544;46.760;15.942;2023-11-19T02:45:16;4.00;99.90
24412;DHT22;12544;46.760;15.942;2023-11-19T02:47:43;4.00;99.90
24412;DHT22;12544;46.760;15.942;2023-11-19T02:50:10;4.00;99.90
24412;DHT22;12544;46.760;15.942;2023-11-19T02:52:51;4.00;99.90
24412;DHT22;12544;46.760;15.942;2023-11-19T02:55:18;4.00;99.90
24412;DHT22;12544;46.760;15.942;2023-11-19T02:57:45;4.00;99.90
24412;DHT22;12544;46.760;15.942;2023-11-19T03:00:21;4.00;99.90
24412;DHT22;12544;46.760;15.942;2023-11-19T03:02:50;4.00;99.90
24412;DHT22;12544;46.760;15.942;2023-11-19T03:05:25;4.00;99.90
24412;DHT22;12544;46.760;15.942;2023-11-19T03:07:52;4.00;99.90
24412;DHT22;12544;46.760;15.942;2023-11-19T03:10:17;4.00;99.90
24412;DHT22;12544;46.760;15.942;2023-11-19T03:12:44;3.90;99.90
24412;DHT22;12544;46.760;15.942;2023-11-19T03:15:11;4.00;99.90
24412;DHT22;12544;46.760;15.942;2023-11-19T03:17:42;4.00;99.90
24412;DHT22;12544;46.760;15.942;2023-11-19T03:20:10;4.00;99.90
24412;DHT22;12544;46.760;15.942;2023-11-19T03:22:39;3.90;99.90
24412;DHT22;12544;46.760;15.942;2023-11-19T03:25:07;3.90;99.90
24412;DHT22;12544;46.760;15.942;2023-11-19T03:27:34;4.00;99.90
24412;DHT22;12544;46.760;15.942;2023-11-19T03:30:01;3.90;99.90
24412;DHT22;12544;46.760;15.942;2023-11-19T03:32:29;4.00;99.90
24412;DHT22;12544;46.760;15.942;2023-11-19T03:34:54;4.00;99.90
24412;DHT22;12544;46.760;15.942;2023-11-19T03:37:21;3.90;99.90
24412;DHT22;12544;46.760;15.942;2023-11-19T03:39:46;4.00;99.90
24412;DHT22;12544;46.760;15.942;2023-11-19T03:42:12;4.00;99.90
24412;DHT22;12544;46.760;15.942;2023-11-19T03:44:39;4.00;99.90
24412;DHT22;12544;46.760;15.942;2023-11-19T03:47:05;3.90;99.90
24412;DHT22;12544;46.760;15.942;2023-11-19T03:49:31;4.00;99.90
24412;DHT22;12544;46.760;15.942;2023-11-19T03:51:57;3.90;99.90
24412;DHT22;12544;46.760;15.942;2023-11-19T03:54:23;3.90;99.90
24412;DHT22;12544;46.760;15.942;2023-11-19T03:56:48;3.90;99.90
24412;DHT22;12544;46.760;15.942;2023-11-19T03:59:14;3.90;99.90
24412;DHT22;12544;46.760;15.942;2023-11-19T04:01:41;4.00;99.90
24412;DHT22;12544;46.760;15.942;2023-11-19T04:04:06;3.90;99.90
24412;DHT22;12544;46.760;15.942;2023-11-19T04:06:32;3.90;99.90
24412;DHT22;12544;46.760;15.942;2023-11-19T04:08:58;3.90;99.90
24412;DHT22;12544;46.760;15.942;2023-11-19T04:11:23;3.90;99.90
24412;DHT22;12544;46.760;15.942;2023-11-19T04:13:49;3.80;99.90
24412;DHT22;12544;46.760;15.942;2023-11-19T04:16:15;3.80;99.90
24412;DHT22;12544;46.760;15.942;2023-11-19T04:18:40;3.80;99.90
24412;DHT22;12544;46.760;15.942;2023-11-19T04:21:07;3.80;99.90
24412;DHT22;12544;46.760;15.942;2023-11-19T04:23:33;3.80;99.90
24412;DHT22;12544;46.760;15.942;2023-11-19T04:26:01;3.80;99.90
24412;DHT22;12544;46.760;15.942;2023-11-19T04:28:27;3.80;99.90
24412;DHT22;12544;46.760;15.942;2023-11-19T04:30:52;3.80;99.90
24412;DHT22;12544;46.760;15.942;2023-11-19T04:33:18;3.80;99.90
24412;DHT22;12544;46.760;15.942;2023-11-19T04:35:44;3.70;99.90
24412;DHT22;12544;46.760;15.942;2023-11-19T04:38:09;3.70;99.90
24412;DHT22;12544;46.760;15.942;2023-11-19T04:40:35;3.80;99.90
24412;DHT22;12544;46.760;15.942;2023-11-19T04:43:01;3.80;99.90
24412;DHT22;12544;46.760;15.942;2023-11-19T04:45:27;3.70;99.90
24412;DHT22;12544;46.760;15.942;2023-11-19T04:47:52;3.70;99.90
24412;DHT22;12544;46.760;15.942;2023-11-19T04:50:18;3.70;99.90
24412;DHT22;12544;46.760;15.942;2023-11-19T04:52:43;3.70;99.90
24412;DHT22;12544;46.760;15.942;2023-11-19T04:55:15;3.60;99.90
24412;DHT22;12544;46.760;15.942;2023-11-19T04:57:42;3.70;99.90
24412;DHT22;12544;46.760;15.942;2023-11-19T05:00:08;3.60;99.90
24412;DHT22;12544;46.760;15.942;2023-11-19T05:02:36;3.60;99.90
24412;DHT22;12544;46.760;15.942;2023-11-19T05:05:02;3.60;99.90
24412;DHT22;12544;46.760;15.942;2023-11-19T05:07:30;3.50;99.90
24412;DHT22;12544;46.760;15.942;2023-11-19T05:09:55;3.50;99.90
24412;DHT22;12544;46.760;15.942;2023-11-19T05:12:21;3.50;99.90
24412;DHT22;12544;46.760;15.942;2023-11-19T05:14:47;3.50;99.90
24412;DHT22;12544;46.760;15.942;2023-11-19T05:17:19;3.40;99.90
24412;DHT22;12544;46.760;15.942;2023-11-19T05:19:45;3.50;99.90
24412;DHT22;12544;46.760;15.942;2023-11-19T05:22:10;3.40;99.90
24412;DHT22;12544;46.760;15.942;2023-11-19T05:24:36;3.40;99.90
24412;DHT22;12544;46.760;15.942;2023-11-19T05:27:02;3.40;99.90
24412;DHT22;12544;46.760;15.942;2023-11-19T05:29:28;3.40;99.90
24412;DHT22;12544;46.760;15.942;2023-11-19T05:31:54;3.30;99.90
24412;DHT22;12544;46.760;15.942;2023-11-19T05:34:21;3.30;99.90
24412;DHT22;12544;46.760;15.942;2023-11-19T05:36:46;3.30;99.90
24412;DHT22;12544;46.760;15.942;2023-11-19T05:39:12;3.30;99.90
24412;DHT22;12544;46.760;15.942;2023-11-19T05:41:38;3.20;99.90
24412;DHT22;12544;46.760;15.942;2023-11-19T05:44:03;3.20;99.90
24412;DHT22;12544;46.760;15.942;2023-11-19T05:46:29;3.10;99.90
24412;DHT22;12544;46.760;15.942;2023-11-19T05:48:54;3.10;99.90
24412;DHT22;12544;46.760;15.942;2023-11-19T05:51:20;3.00;99.90
24412;DHT22;12544;46.760;15.942;2023-11-19T05:53:46;2.90;99.90
24412;DHT22;12544;46.760;15.942;2023-11-19T05:56:12;2.90;99.90
24412;DHT22;12544;46.760;15.942;2023-11-19T05:58:37;2.80;99.90
24412;DHT22;12544;46.760;15.942;2023-11-19T06:01:05;2.80;99.90
24412;DHT22;12544;46.760;15.942;2023-11-19T06:03:32;2.80;99.90
24412;DHT22;12544;46.760;15.942;2023-11-19T06:05:58;2.70;99.90
24412;DHT22;12544;46.760;15.942;2023-11-19T06:08:24;2.70;99.90
24412;DHT22;12544;46.760;15.942;2023-11-19T06:10:52;2.60;99.90
24412;DHT22;12544;46.760;15.942;2023-11-19T06:13:18;2.70;99.90
24412;DHT22;12544;46.760;15.942;2023-11-19T06:15:45;2.80;99.90
24412;DHT22;12544;46.760;15.942;2023-11-19T06:18:10;2.80;99.90
24412;DHT22;12544;46.760;15.942;2023-11-19T06:20:37;2.80;99.90
24412;DHT22;12544;46.760;15.942;2023-11-19T06:23:03;2.80;99.90
24412;DHT22;12544;46.760;15.942;2023-11-19T06:25:29;2.80;99.90
24412;DHT22;12544;46.760;15.942;2023-11-19T06:27:54;2.80;99.90
24412;DHT22;12544;46.760;15.942;2023-11-19T06:30:20;2.80;99.90
24412;DHT22;12544;46.760;15.942;2023-11-19T06:32:46;2.80;99.90
24412;DHT22;12544;46.760;15.942;2023-11-19T06:35:12;2.80;99.90
24412;DHT22;12544;46.760;15.942;2023-11-19T06:37:39;2.90;99.90
24412;DHT22;12544;46.760;15.942;2023-11-19T06:40:05;3.00;99.90
24412;DHT22;12544;46.760;15.942;2023-11-19T06:42:32;3.10;99.90
24412;DHT22;12544;46.760;15.942;2023-11-19T06:44:58;3.20;99.90
24412;DHT22;12544;46.760;15.942;2023-11-19T06:47:27;3.30;99.90
24412;DHT22;12544;46.760;15.942;2023-11-19T06:49:53;3.40;99.90
24412;DHT22;12544;46.760;15.942;2023-11-19T06:52:19;3.50;99.90
24412;DHT22;12544;46.760;15.942;2023-11-19T06:54:45;3.60;99.90
24412;DHT22;12544;46.760;15.942;2023-11-19T06:57:13;3.70;99.90
24412;DHT22;12544;46.760;15.942;2023-11-19T06:59:39;3.70;99.90
24412;DHT22;12544;46.760;15.942;2023-11-19T07:02:06;3.70;99.90
24412;DHT22;12544;46.760;15.942;2023-11-19T07:04:32;3.60;99.90
24412;DHT22;12544;46.760;15.942;2023-11-19T07:06:59;3.50;99.90
24412;DHT22;12544;46.760;15.942;2023-11-19T07:09:25;3.40;99.90
24412;DHT22;12544;46.760;15.942;2023-11-19T07:11:51;3.40;99.90
24412;DHT22;12544;46.760;15.942;2023-11-19T07:14:20;3.40;99.90
24412;DHT22;12544;46.760;15.942;2023-11-19T07:16:46;3.40;99.90
24412;DHT22;12544;46.760;15.942;2023-11-19T07:19:12;3.40;99.90
24412;DHT22;12544;46.760;15.942;2023-11-19T07:21:41;3.50;99.90
24412;DHT22;12544;46.760;15.942;2023-11-19T07:24:10;3.60;99.90
24412;DHT22;12544;46.760;15.942;2023-11-19T07:26:39;3.70;99.90
24412;DHT22;12544;46.760;15.942;2023-11-19T07:29:05;3.70;99.90
24412;DHT22;12544;46.760;15.942;2023-11-19T07:31:33;3.70;99.90
24412;DHT22;12544;46.760;15.942;2023-11-19T07:33:58;3.70;99.90
24412;DHT22;12544;46.760;15.942;2023-11-19T07:36:24;3.70;99.90
24412;DHT22;12544;46.760;15.942;2023-11-19T07:38:49;3.70;99.90
24412;DHT22;12544;46.760;15.942;2023-11-19T07:41:15;3.60;99.90
24412;DHT22;12544;46.760;15.942;2023-11-19T07:43:43;3.60;99.90
24412;DHT22;12544;46.760;15.942;2023-11-19T07:46:13;3.60;99.90
24412;DHT22;12544;46.760;15.942;2023-11-19T07:48:39;3.70;99.90
24412;DHT22;12544;46.760;15.942;2023-11-19T07:51:05;3.70;99.90
24412;DHT22;12544;46.760;15.942;2023-11-19T07:53:31;3.80;99.90
24412;DHT22;12544;46.760;15.942;2023-11-19T07:55:58;3.80;99.90
24412;DHT22;12544;46.760;15.942;2023-11-19T07:58:25;3.70;99.90
24412;DHT22;12544;46.760;15.942;2023-11-19T08:00:51;3.80;99.90
24412;DHT22;12544;46.760;15.942;2023-11-19T08:03:17;3.70;99.90
24412;DHT22;12544;46.760;15.942;2023-11-19T08:05:44;3.60;99.90
24412;DHT22;12544;46.760;15.942;2023-11-19T08:08:11;3.60;99.90
24412;DHT22;12544;46.760;15.942;2023-11-19T08:10:37;3.60;99.90
24412;DHT22;12544;46.760;15.942;2023-11-19T08:13:03;3.60;99.90
24412;DHT22;12544;46.760;15.942;2023-11-19T08:15:29;3.60;99.90
24412;DHT22;12544;46.760;15.942;2023-11-19T08:17:54;3.60;99.90
24412;DHT22;12544;46.760;15.942;2023-11-19T08:20:20;3.60;99.90
24412;DHT22;12544;46.760;15.942;2023-11-19T08:22:46;3.70;99.90
24412;DHT22;12544;46.760;15.942;2023-11-19T08:25:11;3.80;99.90
24412;DHT22;12544;46.760;15.942;2023-11-19T08:27:37;3.90;99.90
24412;DHT22;12544;46.760;15.942;2023-11-19T08:30:03;4.00;99.90
24412;DHT22;12544;46.760;15.942;2023-11-19T08:32:29;4.00;99.90
24412;DHT22;12544;46.760;15.942;2023-11-19T08:34:54;4.10;99.90
24412;DHT22;12544;46.760;15.942;2023-11-19T08:37:21;4.20;99.90
24412;DHT22;12544;46.760;15.942;2023-11-19T08:39:48;4.30;99.90
24412;DHT22;12544;46.760;15.942;2023-11-19T08:42:14;4.30;99.90
24412;DHT22;12544;46.760;15.942;2023-11-19T08:44:41;4.40;99.90
24412;DHT22;12544;46.760;15.942;2023-11-19T08:47:12;4.40;99.90
24412;DHT22;12544;46.760;15.942;2023-11-19T08:49:41;4.40;99.90
24412;DHT22;12544;46.760;15.942;2023-11-19T08:52:07;4.30;99.90
24412;DHT22;12544;46.760;15.942;2023-11-19T08:54:33;4.30;99.90
24412;DHT22;12544;46.760;15.942;2023-11-19T08:56:59;4.40;99.90
24412;DHT22;12544;46.760;15.942;2023-11-19T08:59:28;4.40;99.90
24412;DHT22;12544;46.760;15.942;2023-11-19T09:01:55;4.30;99.90
24412;DHT22;12544;46.760;15.942;2023-11-19T09:04:21;4.40;99.90
24412;DHT22;12544;46.760;15.942;2023-11-19T09:06:48;4.50;99.90
24412;DHT22;12544;46.760;15.942;2023-11-19T09:09:14;4.50;99.90
24412;DHT22;12544;46.760;15.942;2023-11-19T09:11:40;4.40;99.90
24412;DHT22;12544;46.760;15.942;2023-11-19T09:14:06;4.40;99.90
24412;DHT22;12544;46.760;15.942;2023-11-19T09:16:31;4.30;99.90
24412;DHT22;12544;46.760;15.942;2023-11-19T09:18:57;4.40;99.90
24412;DHT22;12544;46.760;15.942;2023-11-19T09:24:46;4.60;99.90
24412;DHT22;12544;46.760;15.942;2023-11-19T09:27:13;4.90;99.90
24412;DHT22;12544;46.760;15.942;2023-11-19T09:29:39;5.20;99.90
24412;DHT22;12544;46.760;15.942;2023-11-19T09:32:05;5.50;99.90
24412;DHT22;12544;46.760;15.942;2023-11-19T09:34:31;5.80;99.90
24412;DHT22;12544;46.760;15.942;2023-11-19T09:36:57;6.10;99.90
24412;DHT22;12544;46.760;15.942;2023-11-19T09:42:45;6.30;99.90
24412;DHT22;12544;46.760;15.942;2023-11-19T09:45:15;6.10;99.90
24412;DHT22;12544;46.760;15.942;2023-11-19T09:47:45;6.00;99.90
24412;DHT22;12544;46.760;15.942;2023-11-19T09:50:18;6.10;99.90
24412;DHT22;12544;46.760;15.942;2023-11-19T09:52:45;6.00;99.90
24412;DHT22;12544;46.760;15.942;2023-11-19T09:55:11;6.00;99.90
24412;DHT22;12544;46.760;15.942;2023-11-19T09:57:39;5.80;99.90
24412;DHT22;12544;46.760;15.942;2023-11-19T10:00:06;5.80;99.90
24412;DHT22;12544;46.760;15.942;2023-11-19T10:02:34;5.80;99.90
24412;DHT22;12544;46.760;15.942;2023-11-19T10:05:09;5.70;99.90
24412;DHT22;12544;46.760;15.942;2023-11-19T10:07:35;5.60;99.90
24412;DHT22;12544;46.760;15.942;2023-11-19T10:10:02;5.70;99.90
24412;DHT22;12544;46.760;15.942;2023-11-19T10:15:53;5.60;99.90
24412;DHT22;12544;46.760;15.942;2023-11-19T10:18:18;5.50;99.90
24412;DHT22;12544;46.760;15.942;2023-11-19T10:20:49;5.50;99.90
24412;DHT22;12544;46.760;15.942;2023-11-19T10:23:14;5.60;99.90
24412;DHT22;12544;46.760;15.942;2023-11-19T10:25:40;5.70;99.90
24412;DHT22;12544;46.760;15.942;2023-11-19T10:28:06;5.90;99.90
24412;DHT22;12544;46.760;15.942;2023-11-19T10:33:53;6.60;99.90
24412;DHT22;12544;46.760;15.942;2023-11-19T10:36:19;6.90;99.90
24412;DHT22;12544;46.760;15.942;2023-11-19T10:38:52;7.20;99.90
24412;DHT22;12544;46.760;15.942;2023-11-19T10:41:31;7.50;99.90
24412;DHT22;12544;46.760;15.942;2023-11-19T10:44:00;7.80;99.90
24412;DHT22;12544;46.760;15.942;2023-11-19T10:49:48;8.10;99.90
24412;DHT22;12544;46.760;15.942;2023-11-19T10:52:17;8.30;99.90
24412;DHT22;12544;46.760;15.942;2023-11-19T10:54:50;8.40;99.90
24412;DHT22;12544;46.760;15.942;2023-11-19T10:57:21;8.10;99.90
24412;DHT22;12544;46.760;15.942;2023-11-19T10:59:51;8.00;99.90
24412;DHT22;12544;46.760;15.942;2023-11-19T11:02:19;7.80;99.90
24412;DHT22;12544;46.760;15.942;2023-11-19T11:04:47;7.70;99.90
24412;DHT22;12544;46.760;15.942;2023-11-19T11:07:15;7.60;99.90
24412;DHT22;12544;46.760;15.942;2023-11-19T11:09:44;7.60;99.90
24412;DHT22;12544;46.760;15.942;2023-11-19T11:12:12;7.70;99.90
24412;DHT22;12544;46.760;15.942;2023-11-19T11:14:38;7.90;99.90
24412;DHT22;12544;46.760;15.942;2023-11-19T11:17:06;8.30;99.90
24412;DHT22;12544;46.760;15.942;2023-11-19T11:19:34;8.90;99.90
24412;DHT22;12544;46.760;15.942;2023-11-19T11:22:00;9.10;99.90
24412;DHT22;12544;46.760;15.942;2023-11-19T11:33:02;9.00;99.90
24412;DHT22;12544;46.760;15.942;2023-11-19T11:35:38;8.70;99.90
24412;DHT22;12544;46.760;15.942;2023-11-19T11:38:08;8.90;99.90
24412;DHT22;12544;46.760;15.942;2023-11-19T11:40:34;9.30;99.90
24412;DHT22;12544;46.760;15.942;2023-11-19T11:43:02;9.60;99.90
24412;DHT22;12544;46.760;15.942;2023-11-19T11:45:40;10.20;99.90
24412;DHT22;12544;46.760;15.942;2023-11-19T11:48:13;10.80;99.90
24412;DHT22;12544;46.760;15.942;2023-11-19T11:50:53;11.30;99.90
24412;DHT22;12544;46.760;15.942;2023-11-19T11:53:21;11.50;99.90
24412;DHT22;12544;46.760;15.942;2023-11-19T11:58:31;11.30;99.90
24412;DHT22;12544;46.760;15.942;2023-11-19T12:00:58;11.50;99.90
24412;DHT22;12544;46.760;15.942;2023-11-19T12:03:28;11.70;99.90
24412;DHT22;12544;46.760;15.942;2023-11-19T12:05:59;12.10;99.90
24412;DHT22;12544;46.760;15.942;2023-11-19T12:08:27;12.40;99.90
24412;DHT22;12544;46.760;15.942;2023-11-19T12:10:55;12.60;99.90
24412;DHT22;12544;46.760;15.942;2023-11-19T12:13:46;12.80;99.90
24412;DHT22;12544;46.760;15.942;2023-11-19T12:16:12;12.90;99.30
24412;DHT22;12544;46.760;15.942;2023-11-19T12:18:39;12.80;99.20
24412;DHT22;12544;46.760;15.942;2023-11-19T12:21:06;12.60;98.90
24412;DHT22;12544;46.760;15.942;2023-11-19T12:23:34;12.40;99.10
24412;DHT22;12544;46.760;15.942;2023-11-19T12:26:00;12.30;99.40
24412;DHT22;12544;46.760;15.942;2023-11-19T12:28:26;12.50;99.80
24412;DHT22;12544;46.760;15.942;2023-11-19T12:30:53;12.30;98.90
24412;DHT22;12544;46.760;15.942;2023-11-19T12:33:19;12.20;99.90
24412;DHT22;12544;46.760;15.942;2023-11-19T12:35:46;12.10;99.80
24412;DHT22;12544;46.760;15.942;2023-11-19T12:38:23;12.30;99.70
24412;DHT22;12544;46.760;15.942;2023-11-19T12:41:05;12.60;99.60
24412;DHT22;12544;46.760;15.942;2023-11-19T12:43:31;12.70;98.80
24412;DHT22;12544;46.760;15.942;2023-11-19T12:45:57;12.90;98.50
24412;DHT22;12544;46.760;15.942;2023-11-19T12:48:23;13.10;98.30
24412;DHT22;12544;46.760;15.942;2023-11-19T12:50:58;13.50;98.40
24412;DHT22;12544;46.760;15.942;2023-11-19T12:53:26;13.20;98.00
24412;DHT22;12544;46.760;15.942;2023-11-19T12:55:53;13.00;97.70
24412;DHT22;12544;46.760;15.942;2023-11-19T12:58:32;12.80;98.60
24412;DHT22;12544;46.760;15.942;2023-11-19T13:01:05;12.80;99.50
24412;DHT22;12544;46.760;15.942;2023-11-19T13:03:34;13.10;99.00
24412;DHT22;12544;46.760;15.942;2023-11-19T13:06:07;13.40;98.30
24412;DHT22;12544;46.760;15.942;2023-11-19T13:08:44;13.40;97.80
24412;DHT22;12544;46.760;15.942;2023-11-19T13:11:11;13.40;98.10
24412;DHT22;12544;46.760;15.942;2023-11-19T13:13:56;13.40;98.30
24412;DHT22;12544;46.760;15.942;2023-11-19T13:16:22;13.00;99.20
24412;DHT22;12544;46.760;15.942;2023-11-19T13:18:48;12.90;98.70
24412;DHT22;12544;46.760;15.942;2023-11-19T13:21:14;12.80;98.50
24412;DHT22;12544;46.760;15.942;2023-11-19T13:23:39;12.90;98.90
24412;DHT22;12544;46.760;15.942;2023-11-19T13:26:05;13.20;98.90
24412;DHT22;12544;46.760;15.942;2023-11-19T13:28:31;13.50;98.70
24412;DHT22;12544;46.760;15.942;2023-11-19T13:30:57;13.50;97.90
24412;DHT22;12544;46.760;15.942;2023-11-19T13:33:23;13.60;97.00
24412;DHT22;12544;46.760;15.942;2023-11-19T13:35:49;13.90;97.50
24412;DHT22;12544;46.760;15.942;2023-11-19T13:38:14;13.90;96.10
24412;DHT22;12544;46.760;15.942;2023-11-19T13:40:40;13.50;96.40
24412;DHT22;12544;46.760;15.942;2023-11-19T13:43:06;13.60;98.10
24412;DHT22;12544;46.760;15.942;2023-11-19T13:45:32;13.90;97.30
24412;DHT22;12544;46.760;15.942;2023-11-19T13:47:58;14.00;96.60
24412;DHT22;12544;46.760;15.942;2023-11-19T13:50:24;13.60;96.40
24412;DHT22;12544;46.760;15.942;2023-11-19T13:52:49;13.50;97.90
24412;DHT22;12544;46.760;15.942;2023-11-19T13:55:15;13.50;97.10
24412;DHT22;12544;46.760;15.942;2023-11-19T13:57:42;13.70;98.10
24412;DHT22;12544;46.760;15.942;2023-11-19T14:00:09;13.70;96.50
24412;DHT22;12544;46.760;15.942;2023-11-19T14:02:42;13.60;97.00
24412;DHT22;12544;46.760;15.942;2023-11-19T14:05:08;13.40;97.40
24412;DHT22;12544;46.760;15.942;2023-11-19T14:07:34;13.40;98.50
24412;DHT22;12544;46.760;15.942;2023-11-19T14:10:00;13.60;98.50
24412;DHT22;12544;46.760;15.942;2023-11-19T14:12:26;13.60;97.70
24412;DHT22;12544;46.760;15.942;2023-11-19T14:14:51;13.70;98.60
24412;DHT22;12544;46.760;15.942;2023-11-19T14:17:17;13.80;97.50
24412;DHT22;12544;46.760;15.942;2023-11-19T14:19:44;13.90;97.30
24412;DHT22;12544;46.760;15.942;2023-11-19T14:22:10;13.80;97.10
24412;DHT22;12544;46.760;15.942;2023-11-19T14:24:35;13.60;98.00
24412;DHT22;12544;46.760;15.942;2023-11-19T14:27:01;13.60;97.40
24412;DHT22;12544;46.760;15.942;2023-11-19T14:29:27;13.70;97.60
24412;DHT22;12544;46.760;15.942;2023-11-19T14:31:57;13.80;97.40
24412;DHT22;12544;46.760;15.942;2023-11-19T14:34:24;13.90;96.90
24412;DHT22;12544;46.760;15.942;2023-11-19T14:36:51;13.90;96.70
24412;DHT22;12544;46.760;15.942;2023-11-19T14:39:17;13.70;97.00
24412;DHT22;12544;46.760;15.942;2023-11-19T14:41:43;13.50;97.80
24412;DHT22;12544;46.760;15.942;2023-11-19T14:44:10;13.40;97.80
24412;DHT22;12544;46.760;15.942;2023-11-19T14:46:36;13.30;97.60
24412;DHT22;12544;46.760;15.942;2023-11-19T14:49:01;13.20;98.30
24412;DHT22;12544;46.760;15.942;2023-11-19T14:51:27;13.10;97.60
24412;DHT22;12544;46.760;15.942;2023-11-19T14:53:52;13.00;98.20
24412;DHT22;12544;46.760;15.942;2023-11-19T14:56:18;12.80;97.90
24412;DHT22;12544;46.760;15.942;2023-11-19T14:58:44;12.70;98.30
24412;DHT22;12544;46.760;15.942;2023-11-19T15:01:13;12.60;98.80
24412;DHT22;12544;46.760;15.942;2023-11-19T15:03:39;12.40;99.40
24412;DHT22;12544;46.760;15.942;2023-11-19T15:06:06;12.20;98.80
24412;DHT22;12544;46.760;15.942;2023-11-19T15:08:32;12.00;99.90
24412;DHT22;12544;46.760;15.942;2023-11-19T15:10:58;11.70;99.90
24412;DHT22;12544;46.760;15.942;2023-11-19T15:13:24;11.50;99.90
24412;DHT22;12544;46.760;15.942;2023-11-19T15:15:49;11.10;99.90
24412;DHT22;12544;46.760;15.942;2023-11-19T15:18:15;10.70;99.90
24412;DHT22;12544;46.760;15.942;2023-11-19T15:20:43;10.30;99.90
24412;DHT22;12544;46.760;15.942;2023-11-19T15:23:14;10.00;99.90
24412;DHT22;12544;46.760;15.942;2023-11-19T15:25:41;9.70;99.90
24412;DHT22;12544;46.760;15.942;2023-11-19T15:28:07;9.50;99.90
24412;DHT22;12544;46.760;15.942;2023-11-19T15:30:33;9.20;99.90
24412;DHT22;12544;46.760;15.942;2023-11-19T15:32:58;9.00;99.90
24412;DHT22;12544;46.760;15.942;2023-11-19T15:35:24;8.90;99.90
24412;DHT22;12544;46.760;15.942;2023-11-19T15:37:50;8.70;99.90
24412;DHT22;12544;46.760;15.942;2023-11-19T15:40:15;8.60;99.90
24412;DHT22;12544;46.760;15.942;2023-11-19T15:42:41;8.50;99.90
24412;DHT22;12544;46.760;15.942;2023-11-19T15:45:09;8.40;99.90
24412;DHT22;12544;46.760;15.942;2023-11-19T15:47:35;8.30;99.90
24412;DHT22;12544;46.760;15.942;2023-11-19T15:50:01;8.20;99.90
24412;DHT22;12544;46.760;15.942;2023-11-19T15:55:50;8.10;99.90
24412;DHT22;12544;46.760;15.942;2023-11-19T15:58:18;7.90;99.90